sensor_id;sensor_type;location;lat;lon;timestamp;pressure;altitude;pressure_sealevel;temperature;humidity
44079;BME280;29744;49.078;12.878;2024-03-02T00:00:59;95405.72;;;13.98;37.60
44079;BME280;29744;49.078;12.878;2024-03-02T00:05:59;95410.66;;;13.96;37.62
44079;BME280;29744;49.078;12.878;2024-03-02T00:11:00;95402.94;;;13.94;37.74
44079;BME280;29744;49.078;12.878;2024-03-02T00:16:03;95406.75;;;13.93;37.83
44079;BME280;29744;49.078;12.878;2024-03-02T00:21:06;95404.41;;;13.92;37.60
44079;BME280;29744;49.078;12.878;2024-03-02T00:26:11;95400.13;;;13.91;37.33
44079;BME280;29744;49.078;12.878;2024-03-02T00:31:13;95400.13;;;13.91;37.64
44079;BME280;29744;49.078;12.878;2024-03-02T00:36:22;95394.31;;;13.89;37.50
44079;BME280;29744;49.078;12.878;2024-03-02T00:41:28;95396.22;;;13.88;37.72
44079;BME280;29744;49.078;12.878;2024-03-02T00:46:36;95386.56;;;13.87;37.76
44079;BME280;29744;49.078;12.878;2024-03-02T00:51:36;95396.91;;;13.85;37.66
44079;BME280;29744;49.078;12.878;2024-03-02T00:56:37;95401.84;;;13.83;37.82
44079;BME280;29744;49.078;12.878;2024-03-02T01:01:37;95401.84;;;13.83;37.64
44079;BME280;29744;49.078;12.878;2024-03-02T01:06:38;95392.19;;;13.82;37.90
44079;BME280;29744;49.078;12.878;2024-03-02T01:11:38;95391.41;;;13.81;37.46
44079;BME280;29744;49.078;12.878;2024-03-02T01:16:38;95393.31;;;13.81;37.65
44079;BME280;29744;49.078;12.878;2024-03-02T01:21:39;95384.00;;;13.78;37.70
44079;BME280;29744;49.078;12.878;2024-03-02T01:26:39;95384.78;;;13.79;38.15
44079;BME280;29744;49.078;12.878;2024-03-02T01:31:39;95385.13;;;13.77;38.01
44079;BME280;29744;49.078;12.878;2024-03-02T01:36:42;95383.19;;;13.78;37.43
44079;BME280;29744;49.078;12.878;2024-03-02T01:41:42;95386.25;;;13.76;38.03
44079;BME280;29744;49.078;12.878;2024-03-02T01:46:42;95385.47;;;13.76;37.94
44079;BME280;29744;49.078;12.878;2024-03-02T01:51:43;95382.31;;;13.74;37.97
44079;BME280;29744;49.078;12.878;2024-03-02T01:56:43;95383.09;;;13.74;38.16
44079;BME280;29744;49.078;12.878;2024-03-02T02:01:44;95379.63;;;13.74;37.71
44079;BME280;29744;49.078;12.878;2024-03-02T02:06:44;95375.38;;;13.73;37.99
44079;BME280;29744;49.078;12.878;2024-03-02T02:11:45;95376.50;;;13.72;38.01
44079;BME280;29744;49.078;12.878;2024-03-02T02:16:45;95366.84;;;13.71;37.75
44079;BME280;29744;49.078;12.878;2024-03-02T02:21:46;95360.66;;;13.70;37.94
44079;BME280;29744;49.078;12.878;2024-03-02T02:26:46;95359.88;;;13.70;38.13
44079;BME280;29744;49.078;12.878;2024-03-02T02:31:46;95359.09;;;13.69;38.02
44079;BME280;29744;49.078;12.878;2024-03-02T02:36:47;95364.84;;;13.68;37.94
44079;BME280;29744;49.078;12.878;2024-03-02T02:41:48;95358.66;;;13.67;38.04
44079;BME280;29744;49.078;12.878;2024-03-02T02:46:48;95355.97;;;13.67;38.16
44079;BME280;29744;49.078;12.878;2024-03-02T02:51:48;95357.88;;;13.67;37.95
44079;BME280;29744;49.078;12.878;2024-03-02T02:56:49;95355.19;;;13.67;38.00
44079;BME280;29744;49.078;12.878;2024-03-02T03:01:51;95363.28;;;13.67;37.73
44079;BME280;29744;49.078;12.878;2024-03-02T03:06:51;95367.09;;;13.66;37.72
44079;BME280;29744;49.078;12.878;2024-03-02T03:11:52;95360.13;;;13.65;38.23
44079;BME280;29744;49.078;12.878;2024-03-02T03:16:52;95361.25;;;13.64;38.19
44079;BME280;29744;49.078;12.878;2024-03-02T03:21:52;95361.25;;;13.64;37.88
44079;BME280;29744;49.078;12.878;2024-03-02T03:26:53;95354.31;;;13.63;38.24
44079;BME280;29744;49.078;12.878;2024-03-02T03:31:53;95358.91;;;13.62;37.70
44079;BME280;29744;49.078;12.878;2024-03-02T03:36:53;95360.03;;;13.61;38.38
44079;BME280;29744;49.078;12.878;2024-03-02T03:41:54;95365.44;;;13.61;38.12
44079;BME280;29744;49.078;12.878;2024-03-02T03:46:54;95363.84;;;13.60;37.99
44079;BME280;29744;49.078;12.878;2024-03-02T03:51:55;95363.06;;;13.60;37.75
44079;BME280;29744;49.078;12.878;2024-03-02T03:56:55;95371.16;;;13.60;37.96
44079;BME280;29744;49.078;12.878;2024-03-02T04:01:56;95374.19;;;13.58;37.96
44079;BME280;29744;49.078;12.878;2024-03-02T04:06:56;95368.81;;;13.58;38.08
44079;BME280;29744;49.078;12.878;2024-03-02T04:11:57;95373.41;;;13.58;38.22
44079;BME280;29744;49.078;12.878;2024-03-02T04:16:57;95366.44;;;13.57;37.99
44079;BME280;29744;49.078;12.878;2024-03-02T04:21:57;95376.44;;;13.56;38.11
44079;BME280;29744;49.078;12.878;2024-03-02T04:26:58;95371.84;;;13.57;38.15
44079;BME280;29744;49.078;12.878;2024-03-02T04:31:58;95385.31;;;13.57;38.32
44079;BME280;29744;49.078;12.878;2024-03-02T04:36:58;95387.22;;;13.56;38.08
44079;BME280;29744;49.078;12.878;2024-03-02T04:41:59;95374.19;;;13.58;38.05
44079;BME280;29744;49.078;12.878;2024-03-02T04:46:59;95372.72;;;13.61;37.95
44079;BME280;29744;49.078;12.878;2024-03-02T04:51:59;95374.72;;;13.64;37.90
44079;BME280;29744;49.078;12.878;2024-03-02T04:57:00;95381.78;;;13.68;38.01
44079;BME280;29744;49.078;12.878;2024-03-02T05:02:00;95383.88;;;13.75;37.78
44079;BME280;29744;49.078;12.878;2024-03-02T05:07:00;95384.91;;;13.82;38.17
44079;BME280;29744;49.078;12.878;2024-03-02T05:12:01;95392.03;;;13.91;37.97
44079;BME280;29744;49.078;12.878;2024-03-02T05:17:29;95403.13;;;14.01;37.75
44079;BME280;29744;49.078;12.878;2024-03-02T05:22:29;95400.25;;;14.10;38.00
44079;BME280;29744;49.078;12.878;2024-03-02T05:27:30;95408.63;;;14.21;37.60
44079;BME280;29744;49.078;12.878;2024-03-02T05:32:31;95420.50;;;14.32;37.78
44079;BME280;29744;49.078;12.878;2024-03-02T05:37:31;95416.84;;;14.40;38.11
44079;BME280;29744;49.078;12.878;2024-03-02T05:42:31;95419.03;;;14.50;37.61
44079;BME280;29744;49.078;12.878;2024-03-02T05:47:32;95425.41;;;14.58;37.62
44079;BME280;29744;49.078;12.878;2024-03-02T05:52:33;95433.66;;;14.65;37.35
44079;BME280;29744;49.078;12.878;2024-03-02T05:57:33;95435.31;;;14.69;37.71
44079;BME280;29744;49.078;12.878;2024-03-02T06:02:49;95437.75;;;14.74;37.68
44079;BME280;29744;49.078;12.878;2024-03-02T06:07:50;95441.31;;;14.78;37.65
44079;BME280;29744;49.078;12.878;2024-03-02T06:12:50;95440.19;;;14.79;37.47
44079;BME280;29744;49.078;12.878;2024-03-02T06:17:50;95446.03;;;14.81;37.24
44079;BME280;29744;49.078;12.878;2024-03-02T06:22:51;95444.53;;;14.84;37.45
44079;BME280;29744;49.078;12.878;2024-03-02T06:27:51;95441.84;;;14.84;37.23
44079;BME280;29744;49.078;12.878;2024-03-02T06:32:51;95453.44;;;14.85;36.97
44079;BME280;29744;49.078;12.878;2024-03-02T06:37:52;95450.72;;;14.85;37.26
44079;BME280;29744;49.078;12.878;2024-03-02T06:42:52;95445.31;;;14.85;37.33
44079;BME280;29744;49.078;12.878;2024-03-02T06:47:53;95449.16;;;14.83;36.92
44079;BME280;29744;49.078;12.878;2024-03-02T06:52:53;95457.25;;;14.83;37.17
44079;BME280;29744;49.078;12.878;2024-03-02T06:57:53;95465.69;;;14.82;36.91
44079;BME280;29744;49.078;12.878;2024-03-02T07:02:54;95472.22;;;14.81;36.87
44079;BME280;29744;49.078;12.878;2024-03-02T07:07:54;95463.34;;;14.80;37.19
44079;BME280;29744;49.078;12.878;2024-03-02T07:12:54;95475.28;;;14.79;37.35
44079;BME280;29744;49.078;12.878;2024-03-02T07:17:55;95471.81;;;14.79;36.68
44079;BME280;29744;49.078;12.878;2024-03-02T07:22:55;95476.75;;;14.77;37.20
44079;BME280;29744;49.078;12.878;2024-03-02T07:27:56;95469.78;;;14.76;36.81
44079;BME280;29744;49.078;12.878;2024-03-02T07:32:56;95486.34;;;14.74;36.97
44079;BME280;29744;49.078;12.878;2024-03-02T07:37:57;95482.06;;;14.73;36.84
44079;BME280;29744;49.078;12.878;2024-03-02T07:42:57;95483.97;;;14.73;36.97
44079;BME280;29744;49.078;12.878;2024-03-02T07:47:57;95490.50;;;14.72;37.42
44079;BME280;29744;49.078;12.878;2024-03-02T07:52:58;95503.22;;;14.71;37.39
44079;BME280;29744;49.078;12.878;2024-03-02T07:58:02;95501.75;;;14.74;36.97
44079;BME280;29744;49.078;12.878;2024-03-02T08:03:02;95506.00;;;14.75;37.06
44079;BME280;29744;49.078;12.878;2024-03-02T08:08:04;95512.97;;;14.76;37.17
44079;BME280;29744;49.078;12.878;2024-03-02T08:13:04;95516.03;;;14.74;37.30
44079;BME280;29744;49.078;12.878;2024-03-02T08:18:05;95515.59;;;14.72;37.22
44079;BME280;29744;49.078;12.878;2024-03-02T08:23:05;95517.50;;;14.72;37.14
44079;BME280;29744;49.078;12.878;2024-03-02T08:28:06;95528.19;;;14.68;36.92
44079;BME280;29744;49.078;12.878;2024-03-02T08:33:06;95528.56;;;14.67;37.50
44079;BME280;29744;49.078;12.878;2024-03-02T08:38:06;95528.09;;;14.65;37.48
44079;BME280;29744;49.078;12.878;2024-03-02T08:43:07;95531.94;;;14.64;37.58
44079;BME280;29744;49.078;12.878;2024-03-02T08:48:08;95530.72;;;14.61;37.06
44079;BME280;29744;49.078;12.878;2024-03-02T08:53:11;95544.56;;;14.60;37.00
44079;BME280;29744;49.078;12.878;2024-03-02T08:58:12;95536.03;;;14.58;37.51
44079;BME280;29744;49.078;12.878;2024-03-02T09:03:12;95540.97;;;14.56;37.21
44079;BME280;29744;49.078;12.878;2024-03-02T09:08:13;95538.63;;;14.54;37.50
44079;BME280;29744;49.078;12.878;2024-03-02T09:13:13;95538.97;;;14.53;37.21
44079;BME280;29744;49.078;12.878;2024-03-02T09:18:14;95537.41;;;14.52;37.34
44079;BME280;29744;49.078;12.878;2024-03-02T09:23:14;95531.56;;;14.49;37.46
44079;BME280;29744;49.078;12.878;2024-03-02T09:28:17;95519.97;;;14.49;37.49
44079;BME280;29744;49.078;12.878;2024-03-02T09:33:17;95511.44;;;14.47;37.43
44079;BME280;29744;49.078;12.878;2024-03-02T09:38:18;95517.19;;;14.45;37.22
44079;BME280;29744;49.078;12.878;2024-03-02T09:43:18;95501.34;;;14.44;37.24
44079;BME280;29744;49.078;12.878;2024-03-02T09:48:19;95497.09;;;14.43;37.43
44079;BME280;29744;49.078;12.878;2024-03-02T09:53:20;95487.44;;;14.42;37.39
44079;BME280;29744;49.078;12.878;2024-03-02T09:58:22;95495.09;;;14.40;37.13
44079;BME280;29744;49.078;12.878;2024-03-02T10:03:23;95484.63;;;14.38;37.72
44079;BME280;29744;49.078;12.878;2024-03-02T10:08:24;95490.38;;;14.37;37.55
44079;BME280;29744;49.078;12.878;2024-03-02T10:13:25;95485.31;;;14.35;37.16
44079;BME280;29744;49.078;12.878;2024-03-02T10:18:26;95475.66;;;14.34;37.35
44079;BME280;29744;49.078;12.878;2024-03-02T10:23:28;95476.00;;;14.33;37.61
44079;BME280;29744;49.078;12.878;2024-03-02T10:28:28;95479.84;;;14.32;37.63
44079;BME280;29744;49.078;12.878;2024-03-02T10:33:30;95479.84;;;14.32;37.43
44079;BME280;29744;49.078;12.878;2024-03-02T10:38:30;95488.63;;;14.29;37.42
44079;BME280;29744;49.078;12.878;2024-03-02T10:43:31;95497.84;;;14.28;37.43
44079;BME280;29744;49.078;12.878;2024-03-02T10:48:32;95486.25;;;14.27;37.88
44079;BME280;29744;49.078;12.878;2024-03-02T10:53:35;95484.69;;;14.26;37.87
44079;BME280;29744;49.078;12.878;2024-03-02T10:58:36;95468.06;;;14.24;37.52
44079;BME280;29744;49.078;12.878;2024-03-02T11:03:37;95462.69;;;14.24;37.31
44079;BME280;29744;49.078;12.878;2024-03-02T11:08:40;95469.19;;;14.23;37.65
44079;BME280;29744;49.078;12.878;2024-03-02T11:13:42;95457.63;;;14.23;37.22
44079;BME280;29744;49.078;12.878;2024-03-02T11:18:47;95439.41;;;14.19;37.36
44079;BME280;29744;49.078;12.878;2024-03-02T11:23:49;95437.50;;;14.20;37.76
44079;BME280;29744;49.078;12.878;2024-03-02T11:28:50;95431.66;;;14.18;37.83
44079;BME280;29744;49.078;12.878;2024-03-02T11:33:50;95422.81;;;14.17;37.71
44079;BME280;29744;49.078;12.878;2024-03-02T11:38:51;95415.06;;;14.16;37.88
44079;BME280;29744;49.078;12.878;2024-03-02T11:43:53;95408.09;;;14.15;37.88
44079;BME280;29744;49.078;12.878;2024-03-02T11:48:53;95399.22;;;14.14;37.55
44079;BME280;29744;49.078;12.878;2024-03-02T11:53:54;95393.03;;;14.14;37.70
44079;BME280;29744;49.078;12.878;2024-03-02T11:58:56;95389.56;;;14.13;37.73
44079;BME280;29744;49.078;12.878;2024-03-02T12:03:58;95375.31;;;14.13;37.79
44079;BME280;29744;49.078;12.878;2024-03-02T12:08:58;95375.66;;;14.11;37.74
44079;BME280;29744;49.078;12.878;2024-03-02T12:13:59;95364.09;;;14.11;37.72
44079;BME280;29744;49.078;12.878;2024-03-02T12:18:59;95358.69;;;14.11;37.75
44079;BME280;29744;49.078;12.878;2024-03-02T12:24:00;95347.91;;;14.11;38.04
44079;BME280;29744;49.078;12.878;2024-03-02T12:29:00;95353.31;;;14.11;38.08
44079;BME280;29744;49.078;12.878;2024-03-02T12:34:02;95335.56;;;14.10;37.61
44079;BME280;29744;49.078;12.878;2024-03-02T12:39:03;95342.84;;;14.09;37.61
44079;BME280;29744;49.078;12.878;2024-03-02T12:44:06;95342.06;;;14.09;37.52
44079;BME280;29744;49.078;12.878;2024-03-02T12:49:09;95335.91;;;14.08;38.01
44079;BME280;29744;49.078;12.878;2024-03-02T12:54:11;95332.41;;;14.08;37.99
44079;BME280;29744;49.078;12.878;2024-03-02T12:59:23;95338.16;;;14.06;38.04
44079;BME280;29744;49.078;12.878;2024-03-02T13:04:28;95328.16;;;14.07;37.93
44079;BME280;29744;49.078;12.878;2024-03-02T13:09:28;95330.06;;;14.06;37.97
44079;BME280;29744;49.078;12.878;2024-03-02T13:14:35;95324.69;;;14.06;37.76
44079;BME280;29744;49.078;12.878;2024-03-02T13:19:35;95324.25;;;14.04;38.15
44079;BME280;29744;49.078;12.878;2024-03-02T13:24:36;95308.84;;;14.05;37.70
44079;BME280;29744;49.078;12.878;2024-03-02T13:29:36;95303.81;;;14.03;37.79
44079;BME280;29744;49.078;12.878;2024-03-02T13:34:37;95301.91;;;14.04;37.79
44079;BME280;29744;49.078;12.878;2024-03-02T13:39:37;95293.81;;;14.04;37.78
44079;BME280;29744;49.078;12.878;2024-03-02T13:44:45;95293.03;;;14.03;38.04
44079;BME280;29744;49.078;12.878;2024-03-02T13:49:47;95291.13;;;14.04;38.09
44079;BME280;29744;49.078;12.878;2024-03-02T13:54:49;95284.94;;;14.03;38.30
44079;BME280;29744;49.078;12.878;2024-03-02T13:59:51;95286.84;;;14.03;37.99
44079;BME280;29744;49.078;12.878;2024-03-02T14:04:52;95281.81;;;14.01;38.06
44079;BME280;29744;49.078;12.878;2024-03-02T14:09:53;95275.63;;;14.01;38.26
44079;BME280;29744;49.078;12.878;2024-03-02T14:14:53;95272.94;;;14.01;38.13
44079;BME280;29744;49.078;12.878;2024-03-02T14:19:55;95261.38;;;14.00;38.13
44079;BME280;29744;49.078;12.878;2024-03-02T14:24:57;95261.38;;;14.00;38.35
44079;BME280;29744;49.078;12.878;2024-03-02T14:29:57;95252.50;;;14.00;37.99
44079;BME280;29744;49.078;12.878;2024-03-02T14:34:58;95257.13;;;13.99;38.18
44079;BME280;29744;49.078;12.878;2024-03-02T14:39:58;95248.25;;;13.99;38.19
44079;BME280;29744;49.078;12.878;2024-03-02T14:44:58;95250.16;;;13.98;38.04
44079;BME280;29744;49.078;12.878;2024-03-02T14:49:59;95242.06;;;13.98;38.46
44079;BME280;29744;49.078;12.878;2024-03-02T14:54:59;95240.94;;;13.99;38.35
44079;BME280;29744;49.078;12.878;2024-03-02T15:00:00;95237.81;;;13.97;38.48
44079;BME280;29744;49.078;12.878;2024-03-02T15:05:00;95235.91;;;13.98;38.16
44079;BME280;29744;49.078;12.878;2024-03-02T15:10:00;95230.50;;;13.98;37.92
44079;BME280;29744;49.078;12.878;2024-03-02T15:15:01;95227.81;;;13.98;38.00
44079;BME280;29744;49.078;12.878;2024-03-02T15:20:01;95221.63;;;13.97;37.92
44079;BME280;29744;49.078;12.878;2024-03-02T15:25:02;95208.50;;;13.96;38.06
44079;BME280;29744;49.078;12.878;2024-03-02T15:30:04;95207.72;;;13.95;38.16
44079;BME280;29744;49.078;12.878;2024-03-02T15:35:05;95197.72;;;13.96;38.02
44079;BME280;29744;49.078;12.878;2024-03-02T15:40:06;95188.09;;;13.95;38.36
44079;BME280;29744;49.078;12.878;2024-03-02T15:45:08;95192.69;;;13.94;38.27
44079;BME280;29744;49.078;12.878;2024-03-02T15:50:09;95183.81;;;13.94;38.00
44079;BME280;29744;49.078;12.878;2024-03-02T15:55:09;95181.91;;;13.94;38.28
44079;BME280;29744;49.078;12.878;2024-03-02T16:00:10;95188.44;;;13.93;38.31
44079;BME280;29744;49.078;12.878;2024-03-02T16:05:10;95179.56;;;13.93;38.37
44079;BME280;29744;49.078;12.878;2024-03-02T16:10:11;95178.44;;;13.94;38.35
44079;BME280;29744;49.078;12.878;2024-03-02T16:15:11;95181.13;;;13.94;38.44
44079;BME280;29744;49.078;12.878;2024-03-02T16:20:12;95178.44;;;13.94;38.38
44079;BME280;29744;49.078;12.878;2024-03-02T16:25:12;95170.00;;;13.95;38.47
44079;BME280;29744;49.078;12.878;2024-03-02T16:30:12;95175.81;;;13.97;38.69
44079;BME280;29744;49.078;12.878;2024-03-02T16:35:14;95181.63;;;13.99;38.78
44079;BME280;29744;49.078;12.878;2024-03-02T16:40:15;95186.34;;;14.02;38.40
44079;BME280;29744;49.078;12.878;2024-03-02T16:45:15;95185.19;;;14.03;38.36
44079;BME280;29744;49.078;12.878;2024-03-02T16:50:16;95190.69;;;14.07;38.76
44079;BME280;29744;49.078;12.878;2024-03-02T16:55:16;95190.69;;;14.07;38.14
44079;BME280;29744;49.078;12.878;2024-03-02T17:00:19;95189.53;;;14.08;38.57
44079;BME280;29744;49.078;12.878;2024-03-02T17:05:19;95200.75;;;14.10;38.51
44079;BME280;29744;49.078;12.878;2024-03-02T17:10:21;95197.72;;;14.11;38.26
44079;BME280;29744;49.078;12.878;2024-03-02T17:15:22;95205.81;;;14.11;38.14
44079;BME280;29744;49.078;12.878;2024-03-02T17:20:22;95207.38;;;14.12;38.35
44079;BME280;29744;49.078;12.878;2024-03-02T17:25:22;95208.16;;;14.13;38.32
44079;BME280;29744;49.078;12.878;2024-03-02T17:30:23;95207.38;;;14.12;37.98
44079;BME280;29744;49.078;12.878;2024-03-02T17:35:23;95222.41;;;14.13;38.18
44079;BME280;29744;49.078;12.878;2024-03-02T17:40:24;95221.63;;;14.13;38.32
44079;BME280;29744;49.078;12.878;2024-03-02T17:45:24;95228.94;;;14.12;38.25
44079;BME280;29744;49.078;12.878;2024-03-02T17:50:25;95237.03;;;14.12;38.21
44079;BME280;29744;49.078;12.878;2024-03-02T17:55:25;95239.72;;;14.12;37.94
44079;BME280;29744;49.078;12.878;2024-03-02T18:00:26;95244.31;;;14.12;38.22
44079;BME280;29744;49.078;12.878;2024-03-02T18:05:26;95232.75;;;14.11;38.54
44079;BME280;29744;49.078;12.878;2024-03-02T18:10:26;95235.47;;;14.11;38.15
44079;BME280;29744;49.078;12.878;2024-03-02T18:15:29;95231.97;;;14.11;38.26
44079;BME280;29744;49.078;12.878;2024-03-02T18:20:29;95224.25;;;14.09;38.43
44079;BME280;29744;49.078;12.878;2024-03-02T18:25:29;95223.09;;;14.10;37.94
44079;BME280;29744;49.078;12.878;2024-03-02T18:30:30;95219.97;;;14.08;37.90
44079;BME280;29744;49.078;12.878;2024-03-02T18:35:31;95215.38;;;14.09;38.13
44079;BME280;29744;49.078;12.878;2024-03-02T18:40:32;95214.59;;;14.08;38.20
44079;BME280;29744;49.078;12.878;2024-03-02T18:45:32;95213.47;;;14.09;38.48
44079;BME280;29744;49.078;12.878;2024-03-02T18:50:32;95218.84;;;14.09;38.39
44079;BME280;29744;49.078;12.878;2024-03-02T18:55:33;95215.03;;;14.10;38.42
44079;BME280;29744;49.078;12.878;2024-03-02T19:00:33;95207.38;;;14.12;38.31
44079;BME280;29744;49.078;12.878;2024-03-02T19:05:33;95208.94;;;14.13;38.08
44079;BME280;29744;49.078;12.878;2024-03-02T19:10:34;95201.63;;;14.14;37.94
44079;BME280;29744;49.078;12.878;2024-03-02T19:15:34;95205.09;;;14.14;38.41
44079;BME280;29744;49.078;12.878;2024-03-02T19:20:35;95205.09;;;14.14;38.37
44079;BME280;29744;49.078;12.878;2024-03-02T19:25:35;95198.94;;;14.14;38.39
44079;BME280;29744;49.078;12.878;2024-03-02T19:30:36;95197.78;;;14.15;37.97
44079;BME280;29744;49.078;12.878;2024-03-02T19:35:37;95197.78;;;14.15;38.11
44079;BME280;29744;49.078;12.878;2024-03-02T19:40:37;95185.09;;;14.15;37.85
44079;BME280;29744;49.078;12.878;2024-03-02T19:45:37;95187.78;;;14.15;38.05
44079;BME280;29744;49.078;12.878;2024-03-02T19:50:38;95187.78;;;14.15;38.17
44079;BME280;29744;49.078;12.878;2024-03-02T19:55:40;95180.47;;;14.16;38.27
44079;BME280;29744;49.078;12.878;2024-03-02T20:00:42;95186.22;;;14.14;38.31
44079;BME280;29744;49.078;12.878;2024-03-02T20:05:42;95185.09;;;14.15;38.23
44079;BME280;29744;49.078;12.878;2024-03-02T20:10:43;95179.28;;;14.13;37.98
44079;BME280;29744;49.078;12.878;2024-03-02T20:15:43;95187.34;;;14.13;37.97
44079;BME280;29744;49.078;12.878;2024-03-02T20:20:43;95188.13;;;14.14;37.97
44079;BME280;29744;49.078;12.878;2024-03-02T20:25:44;95179.28;;;14.13;37.96
44079;BME280;29744;49.078;12.878;2024-03-02T20:30:44;95172.31;;;14.12;37.84
44079;BME280;29744;49.078;12.878;2024-03-02T20:35:44;95184.22;;;14.11;38.05
44079;BME280;29744;49.078;12.878;2024-03-02T20:40:45;95173.44;;;14.11;38.07
44079;BME280;29744;49.078;12.878;2024-03-02T20:45:46;95175.72;;;14.09;38.00
44079;BME280;29744;49.078;12.878;2024-03-02T20:50:47;95166.06;;;14.08;37.99
44079;BME280;29744;49.078;12.878;2024-03-02T20:55:47;95162.59;;;14.08;38.28
44079;BME280;29744;49.078;12.878;2024-03-02T21:00:47;95167.97;;;14.08;37.80
44079;BME280;29744;49.078;12.878;2024-03-02T21:05:48;95163.38;;;14.08;38.19
44079;BME280;29744;49.078;12.878;2024-03-02T21:10:48;95163.38;;;14.08;38.31
44079;BME280;29744;49.078;12.878;2024-03-02T21:15:49;95162.59;;;14.08;38.09
44079;BME280;29744;49.078;12.878;2024-03-02T21:20:49;95156.75;;;14.06;37.88
44079;BME280;29744;49.078;12.878;2024-03-02T21:25:49;95155.97;;;14.05;37.78
44079;BME280;29744;49.078;12.878;2024-03-02T21:30:50;95153.28;;;14.05;37.76
44079;BME280;29744;49.078;12.878;2024-03-02T21:35:53;95150.94;;;14.04;38.31
44079;BME280;29744;49.078;12.878;2024-03-02T21:40:53;95150.16;;;14.03;38.40
44079;BME280;29744;49.078;12.878;2024-03-02T21:45:53;95155.56;;;14.03;38.08
44079;BME280;29744;49.078;12.878;2024-03-02T21:50:54;95149.38;;;14.03;38.34
44079;BME280;29744;49.078;12.878;2024-03-02T21:55:54;95146.25;;;14.01;37.89
44079;BME280;29744;49.078;12.878;2024-03-02T22:00:54;95146.25;;;14.01;38.20
44079;BME280;29744;49.078;12.878;2024-03-02T22:05:55;95137.38;;;14.00;38.25
44079;BME280;29744;49.078;12.878;2024-03-02T22:10:55;95128.50;;;14.00;38.15
44079;BME280;29744;49.078;12.878;2024-03-02T22:15:55;95132.34;;;13.99;38.06
44079;BME280;29744;49.078;12.878;2024-03-02T22:20:56;95129.66;;;13.99;38.25
44079;BME280;29744;49.078;12.878;2024-03-02T22:25:58;95128.09;;;13.98;37.92
44079;BME280;29744;49.078;12.878;2024-03-02T22:30:59;95125.75;;;13.96;37.87
44079;BME280;29744;49.078;12.878;2024-03-02T22:36:00;95119.56;;;13.96;37.87
44079;BME280;29744;49.078;12.878;2024-03-02T22:41:00;95120.69;;;13.95;38.28
44079;BME280;29744;49.078;12.878;2024-03-02T22:46:02;95117.22;;;13.94;38.14
44079;BME280;29744;49.078;12.878;2024-03-02T22:51:02;95114.53;;;13.94;37.93
44079;BME280;29744;49.078;12.878;2024-03-02T22:56:03;95115.66;;;13.93;37.87
44079;BME280;29744;49.078;12.878;2024-03-02T23:01:04;95115.66;;;13.93;38.33
44079;BME280;29744;49.078;12.878;2024-03-02T23:06:09;95103.31;;;13.92;38.51
44079;BME280;29744;49.078;12.878;2024-03-02T23:11:09;95099.06;;;13.91;38.16
44079;BME280;29744;49.078;12.878;2024-03-02T23:16:10;95100.19;;;13.90;38.12
44079;BME280;29744;49.078;12.878;2024-03-02T23:21:10;95094.03;;;13.90;38.19
44079;BME280;29744;49.078;12.878;2024-03-02T23:26:10;95077.06;;;13.89;38.27
44079;BME280;29744;49.078;12.878;2024-03-02T23:31:11;95087.84;;;13.89;37.97
44079;BME280;29744;49.078;12.878;2024-03-02T23:36:14;95084.38;;;13.89;38.27
44079;BME280;29744;49.078;12.878;2024-03-02T23:41:15;95073.94;;;13.87;38.52
44079;BME280;29744;49.078;12.878;2024-03-02T23:46:15;95060.03;;;13.85;38.08
44079;BME280;29744;49.078;12.878;2024-03-02T23:51:16;95055.44;;;13.85;38.32
44079;BME280;29744;49.078;12.878;2024-03-02T23:56:16;95055.44;;;13.85;38.19
